Alzingen, Luxembourg
Current Conditions -  °F | °C
As of 8:50 PM on Saturday 20 Dec 2014 (Local Time) from ELLX Reporting Station
Broken Clouds Broken Clouds  
Wind Chill: 34°   Ceiling: 3600
Heat Index: 41°   Visibility: 6mi
Dew Point: 37°   Wind: 13mph
Humidity: 87%   Direction: 260°W
Pressure: 30.33"   Gusts: NA
Location:  49.57°N, 6.16°E
Report Text: ELLX 201950Z 26011KT 9999 FEW025 BKN036 05/03 Q1027 NOSIG
Loading
Personal Weather Stations






























Interactive Weather Map New forecast layout! Learn more

10-Day Weather Forecast

Advertisements
Track Severe Weather on mobile